Paulina, Oregon
Current Conditions -  °F | °C
As of 1:35 AM on Friday 28 Nov 2014 (Local Time) from KS39 Reporting Station
Overcast Overcast  
Wind Chill: 10°   Ceiling: 9000
Heat Index: 10°   Visibility: 10mi
Dew Point:   Wind: 9mph
Humidity: 58%   Direction: 180°S
Pressure: 29.86"   Gusts: 18mph
Location:  44.13°N, 119.97°W
Report Text: KS39 280935Z AUTO 18008G16KT 150V220 10SM SCT075 OVC090 10/02 A2986 RMK AO2
Loading
Personal Weather Stations






























Interactive Weather Map New forecast layout! Learn more

10-Day Weather Forecast

Advertisements
Track Severe Weather on mobile